createdAt,value
2023-01-07T00:01:08.964Z,10.20
2023-01-07T00:03:36.763Z,10.20
2023-01-07T00:06:07.151Z,10.20
2023-01-07T00:08:36.480Z,10.20
2023-01-07T00:11:05.037Z,10.10
2023-01-07T00:13:32.324Z,10.20
2023-01-07T00:16:04.453Z,10.20
2023-01-07T00:18:31.455Z,10.30
2023-01-07T00:20:59.854Z,10.20
2023-01-07T00:23:28.064Z,10.20
2023-01-07T00:26:11.150Z,10.30
2023-01-07T00:28:40.642Z,10.20
2023-01-07T00:31:10.953Z,10.20
2023-01-07T00:33:47.752Z,10.20
2023-01-07T00:36:14.693Z,10.20
2023-01-07T00:38:41.465Z,10.20
2023-01-07T00:41:09.154Z,10.20
2023-01-07T00:43:36.125Z,10.30
2023-01-07T00:46:03.272Z,10.20
2023-01-07T00:48:30.410Z,10.20
2023-01-07T00:50:57.556Z,10.20
2023-01-07T00:53:25.168Z,10.20
2023-01-07T00:55:52.255Z,10.20
2023-01-07T00:58:24.410Z,10.20
2023-01-07T01:00:56.129Z,10.20
2023-01-07T01:03:24.029Z,10.20
2023-01-07T01:05:51.594Z,10.20
2023-01-07T01:08:18.644Z,10.20
2023-01-07T01:10:46.293Z,10.20
2023-01-07T01:13:18.026Z,10.20
2023-01-07T01:15:47.111Z,10.20
2023-01-07T01:18:14.406Z,10.20
2023-01-07T01:20:41.639Z,10.20
2023-01-07T01:23:09.009Z,10.20
2023-01-07T01:25:35.923Z,10.30
2023-01-07T01:28:02.787Z,10.20
2023-01-07T01:30:29.797Z,10.20
2023-01-07T01:32:56.566Z,10.20
2023-01-07T01:35:23.522Z,10.20
2023-01-07T01:37:50.290Z,10.20
2023-01-07T01:40:17.183Z,10.20
2023-01-07T01:42:43.973Z,10.20
2023-01-07T01:45:12.184Z,10.30
2023-01-07T01:47:54.526Z,10.20
2023-01-07T01:50:41.405Z,10.20
2023-01-07T01:53:30.517Z,10.20
2023-01-07T01:56:07.788Z,10.20
2023-01-07T01:58:42.377Z,10.20
2023-01-07T02:01:09.574Z,10.20
2023-01-07T02:03:37.866Z,10.20
2023-01-07T02:06:05.272Z,10.20
2023-01-07T02:08:32.950Z,10.20
2023-01-07T02:11:30.613Z,10.20
2023-01-07T02:14:15.456Z,10.20
2023-01-07T02:16:53.976Z,10.20
2023-01-07T02:19:58.777Z,10.20
2023-01-07T02:22:51.017Z,10.20
2023-01-07T02:25:42.180Z,10.20
2023-01-07T02:28:27.995Z,10.20
2023-01-07T02:31:22.686Z,10.20
2023-01-07T02:34:09.014Z,10.20
2023-01-07T02:36:39.818Z,10.20
2023-01-07T02:39:38.674Z,10.20
2023-01-07T02:42:17.584Z,10.20
2023-01-07T02:45:08.745Z,10.20
2023-01-07T02:47:44.905Z,10.30
2023-01-07T02:50:11.705Z,10.20
2023-01-07T02:52:39.682Z,10.20
2023-01-07T02:55:19.351Z,10.10
2023-01-07T02:58:10.595Z,10.10
2023-01-07T03:00:37.348Z,10.10
2023-01-07T03:03:15.905Z,10.00
2023-01-07T03:05:52.230Z,10.10
2023-01-07T03:08:27.851Z,10.10
2023-01-07T03:11:04.968Z,10.10
2023-01-07T03:13:38.605Z,10.10
2023-01-07T03:16:27.984Z,10.10
2023-01-07T03:19:05.199Z,10.20
2023-01-07T03:21:34.911Z,10.10
2023-01-07T03:24:02.426Z,10.10
2023-01-07T03:26:34.019Z,10.00
2023-01-07T03:29:03.271Z,10.10
2023-01-07T03:31:31.659Z,10.10
2023-01-07T03:34:12.700Z,10.00
2023-01-07T03:36:42.878Z,10.00
2023-01-07T03:39:11.342Z,9.90
2023-01-07T03:41:58.641Z,9.80
2023-01-07T03:44:25.835Z,9.80
2023-01-07T03:46:53.394Z,9.70
2023-01-07T03:49:20.205Z,9.70
2023-01-07T03:51:49.417Z,9.70
2023-01-07T03:54:16.431Z,9.70
2023-01-07T03:56:43.265Z,9.70
2023-01-07T03:59:10.382Z,9.80
2023-01-07T04:01:37.354Z,9.70
2023-01-07T04:04:04.912Z,9.60
2023-01-07T04:06:31.751Z,9.70
2023-01-07T04:08:58.622Z,9.60
2023-01-07T04:11:25.453Z,9.60
2023-01-07T04:13:52.252Z,9.60
2023-01-07T04:16:19.027Z,9.50
2023-01-07T04:18:45.885Z,9.40
2023-01-07T04:21:12.711Z,9.40
2023-01-07T04:23:39.470Z,9.30
2023-01-07T04:26:06.323Z,9.40
2023-01-07T04:28:33.167Z,9.40
2023-01-07T04:31:00.282Z,9.30
2023-01-07T04:33:27.146Z,9.30
2023-01-07T04:35:54.085Z,9.20
2023-01-07T04:38:20.845Z,9.20
2023-01-07T04:40:47.691Z,9.20
2023-01-07T04:43:14.530Z,9.10
2023-01-07T04:45:41.554Z,9.10
2023-01-07T04:48:08.874Z,9.10
2023-01-07T04:50:35.701Z,9.10
2023-01-07T04:53:02.485Z,9.10
2023-01-07T04:55:29.485Z,9.10
2023-01-07T04:57:56.296Z,9.10
2023-01-07T05:00:23.418Z,9.20
2023-01-07T05:02:50.668Z,9.20
2023-01-07T05:05:17.507Z,9.10
2023-01-07T05:07:44.321Z,9.10
2023-01-07T05:10:11.240Z,9.20
2023-01-07T05:12:38.136Z,9.20
2023-01-07T05:15:06.251Z,9.10
2023-01-07T05:17:33.165Z,9.10
2023-01-07T05:19:59.943Z,9.10
2023-01-07T05:22:26.767Z,9.20
2023-01-07T05:24:53.580Z,9.10
2023-01-07T05:27:20.510Z,9.00
2023-01-07T05:29:47.321Z,9.00
2023-01-07T05:32:14.068Z,9.00
2023-01-07T05:34:41.009Z,9.00
2023-01-07T05:37:07.802Z,9.00
2023-01-07T05:39:34.775Z,9.10
2023-01-07T05:42:02.368Z,9.10
2023-01-07T05:44:29.221Z,9.20
2023-01-07T05:46:56.042Z,9.10
2023-01-07T05:49:22.817Z,9.20
2023-01-07T05:51:49.660Z,9.20
2023-01-07T05:54:16.491Z,9.10
2023-01-07T05:56:43.514Z,9.10
2023-01-07T05:59:10.286Z,9.00
2023-01-07T06:01:37.165Z,9.00
2023-01-07T06:04:04.088Z,8.90
2023-01-07T06:06:30.924Z,8.90
2023-01-07T06:08:57.812Z,8.90
2023-01-07T06:11:24.602Z,8.80
2023-01-07T06:13:51.414Z,8.80
2023-01-07T06:16:18.202Z,8.90
2023-01-07T06:18:45.031Z,8.80
2023-01-07T06:21:11.883Z,8.90
2023-01-07T06:23:38.853Z,8.90
2023-01-07T06:26:05.750Z,8.90
2023-01-07T06:28:32.621Z,9.00
2023-01-07T06:30:59.504Z,8.90
2023-01-07T06:33:26.525Z,8.90
2023-01-07T06:35:53.307Z,8.90
2023-01-07T06:38:20.053Z,8.90
2023-01-07T06:40:46.863Z,8.90
2023-01-07T06:43:13.746Z,9.10
2023-01-07T06:45:41.647Z,9.20
2023-01-07T06:48:08.649Z,9.20
2023-01-07T06:50:35.539Z,9.20
2023-01-07T06:53:02.357Z,9.30
2023-01-07T06:55:29.145Z,9.50
2023-01-07T06:57:55.923Z,9.50
2023-01-07T07:00:22.803Z,9.40
2023-01-07T07:02:49.667Z,9.40
2023-01-07T07:05:16.713Z,9.40
2023-01-07T07:07:43.801Z,9.40
2023-01-07T07:10:11.592Z,9.40
2023-01-07T07:12:39.078Z,9.40
2023-01-07T07:15:07.994Z,9.40
2023-01-07T07:17:35.006Z,9.30
2023-01-07T07:20:01.961Z,9.30
2023-01-07T07:22:28.946Z,9.30
2023-01-07T07:24:55.706Z,9.20
2023-01-07T07:27:22.485Z,9.20
2023-01-07T07:29:49.449Z,9.20
2023-01-07T07:32:16.367Z,9.30
2023-01-07T07:34:43.541Z,9.40
2023-01-07T07:37:10.496Z,9.40
2023-01-07T07:39:37.730Z,9.40
2023-01-07T07:42:05.657Z,9.40
2023-01-07T07:44:32.449Z,9.50
2023-01-07T07:46:59.328Z,9.60
2023-01-07T07:49:26.116Z,9.70
2023-01-07T07:51:52.978Z,9.80
2023-01-07T07:54:21.265Z,9.80
2023-01-07T07:56:49.177Z,9.90
2023-01-07T07:59:15.998Z,9.80
2023-01-07T08:01:43.125Z,9.90
2023-01-07T08:04:10.021Z,9.90
2023-01-07T08:06:36.896Z,9.90
2023-01-07T08:09:03.764Z,9.90
2023-01-07T08:11:30.564Z,9.90
2023-01-07T08:13:57.469Z,10.00
2023-01-07T08:16:24.461Z,10.00
2023-01-07T08:18:51.334Z,10.00
2023-01-07T08:21:18.144Z,10.10
2023-01-07T08:23:45.051Z,10.00
2023-01-07T08:26:12.019Z,10.10
2023-01-07T08:28:39.240Z,10.10
2023-01-07T08:31:07.905Z,10.10
2023-01-07T08:33:37.773Z,10.10
2023-01-07T08:36:09.345Z,10.10
2023-01-07T08:38:36.292Z,10.20
2023-01-07T08:41:03.560Z,10.20
2023-01-07T08:43:30.662Z,10.20
2023-01-07T08:45:57.493Z,10.20
2023-01-07T08:48:24.356Z,10.20
2023-01-07T08:50:52.862Z,10.20
2023-01-07T08:53:23.639Z,10.30
2023-01-07T08:55:50.848Z,10.30
2023-01-07T08:58:17.955Z,10.30
2023-01-07T09:00:44.872Z,10.30
2023-01-07T09:03:11.681Z,10.30
2023-01-07T09:05:38.779Z,10.40
2023-01-07T09:08:05.984Z,10.40
2023-01-07T09:10:32.784Z,10.40
2023-01-07T09:12:59.552Z,10.50
2023-01-07T09:15:26.609Z,10.50
2023-01-07T09:17:53.387Z,10.60
2023-01-07T09:20:20.282Z,10.50
2023-01-07T09:22:47.287Z,10.50
2023-01-07T09:25:14.158Z,10.60
2023-01-07T09:27:42.364Z,10.60
2023-01-07T09:30:09.840Z,10.60
2023-01-07T09:32:36.955Z,10.70
2023-01-07T09:35:05.178Z,10.70
2023-01-07T09:37:32.058Z,10.70
2023-01-07T09:40:01.129Z,10.70
2023-01-07T09:43:05.487Z,10.70
2023-01-07T09:45:37.373Z,10.70
2023-01-07T09:48:12.946Z,10.70
2023-01-07T09:50:42.717Z,10.70
2023-01-07T09:53:26.318Z,10.60
2023-01-07T09:56:10.666Z,10.60
2023-01-07T09:58:42.033Z,10.60
2023-01-07T10:01:37.693Z,10.60
2023-01-07T10:04:29.983Z,10.70
2023-01-07T10:07:11.269Z,10.60
2023-01-07T10:09:47.525Z,10.70
2023-01-07T10:12:24.015Z,10.70
2023-01-07T10:15:18.790Z,10.70
2023-01-07T10:18:15.137Z,10.70
2023-01-07T10:20:56.556Z,10.60
2023-01-07T10:23:37.743Z,10.60
2023-01-07T10:26:10.816Z,10.60
2023-01-07T10:28:51.943Z,10.60
2023-01-07T10:31:25.608Z,10.60
2023-01-07T10:33:53.550Z,10.70
2023-01-07T10:36:38.333Z,10.70
2023-01-07T10:39:18.690Z,10.70
2023-01-07T10:42:31.038Z,10.80
2023-01-07T10:45:00.659Z,10.80
2023-01-07T10:47:54.921Z,10.80
2023-01-07T10:50:50.489Z,10.80
2023-01-07T10:53:35.612Z,10.90
2023-01-07T10:56:31.368Z,10.90
2023-01-07T10:58:58.581Z,10.90
2023-01-07T11:01:38.605Z,10.80
2023-01-07T11:04:12.759Z,10.80
2023-01-07T11:06:45.430Z,10.80
2023-01-07T11:09:29.661Z,10.90
2023-01-07T11:12:01.338Z,10.80
2023-01-07T11:14:32.798Z,10.90
2023-01-07T11:17:33.493Z,10.80
2023-01-07T11:20:00.289Z,10.90
2023-01-07T11:22:27.127Z,10.90
2023-01-07T11:24:55.369Z,11.00
2023-01-07T11:27:25.502Z,11.00
2023-01-07T11:30:19.832Z,10.90
2023-01-07T11:33:00.141Z,11.00
2023-01-07T11:35:30.436Z,11.00
2023-01-07T11:37:58.610Z,11.00
2023-01-07T11:40:31.525Z,11.00
2023-01-07T11:43:22.863Z,10.90
2023-01-07T11:46:20.706Z,11.00
2023-01-07T11:48:52.587Z,10.90
2023-01-07T11:51:22.696Z,10.90
2023-01-07T11:53:49.573Z,10.90
2023-01-07T12:03:55.172Z,11.00
2023-01-07T12:06:32.218Z,11.00
2023-01-07T12:09:13.766Z,11.00
2023-01-07T12:11:43.159Z,11.00
2023-01-07T12:14:30.098Z,10.90
2023-01-07T12:17:11.752Z,11.00
2023-01-07T12:19:47.571Z,11.10
2023-01-07T12:22:21.365Z,11.10
2023-01-07T12:25:06.253Z,11.10
2023-01-07T12:27:44.991Z,11.10
2023-01-07T12:30:44.067Z,11.20
2023-01-07T12:33:43.053Z,11.20
2023-01-07T12:36:27.693Z,11.10
2023-01-07T12:38:59.160Z,11.10
2023-01-07T12:41:37.620Z,11.10
2023-01-07T12:44:17.164Z,11.20
2023-01-07T12:47:31.355Z,11.10
2023-01-07T12:50:00.907Z,11.10
2023-01-07T12:52:45.887Z,11.10
2023-01-07T12:55:28.476Z,11.20
2023-01-07T12:58:10.083Z,11.10
2023-01-07T13:00:57.055Z,11.10
2023-01-07T13:03:46.666Z,11.10
2023-01-07T13:06:32.264Z,11.10
2023-01-07T13:09:12.570Z,11.10
2023-01-07T13:12:40.889Z,11.20
2023-01-07T13:15:01.275Z,11.10
2023-01-07T13:17:30.673Z,11.10
2023-01-07T13:19:58.252Z,11.20
2023-01-07T13:22:37.625Z,11.10
2023-01-07T13:25:33.008Z,11.10
2023-01-07T13:28:02.987Z,11.10
2023-01-07T13:30:40.369Z,11.30
2023-01-07T13:33:28.895Z,11.10
2023-01-07T13:36:08.045Z,11.00
2023-01-07T13:38:59.853Z,11.00
2023-01-07T13:41:44.869Z,11.00
2023-01-07T13:44:39.540Z,11.10
2023-01-07T13:47:10.426Z,11.00
2023-01-07T13:49:37.499Z,10.90
2023-01-07T13:52:22.004Z,10.90
2023-01-07T13:54:48.838Z,10.90
2023-01-07T13:57:24.764Z,10.80
2023-01-07T13:59:54.739Z,10.80
2023-01-07T14:02:26.229Z,10.80
2023-01-07T14:05:11.185Z,10.80
2023-01-07T14:08:13.373Z,10.80
2023-01-07T14:10:40.422Z,10.80
2023-01-07T14:13:37.365Z,10.80
2023-01-07T14:16:22.312Z,10.80
2023-01-07T14:19:13.859Z,10.80
2023-01-07T14:21:52.138Z,10.70
2023-01-07T14:24:55.081Z,10.70
2023-01-07T14:27:35.076Z,10.70
2023-01-07T14:30:23.427Z,10.70
2023-01-07T14:33:05.647Z,10.70
2023-01-07T14:35:38.838Z,10.60
2023-01-07T14:38:33.843Z,10.60
2023-01-07T14:41:03.606Z,10.60
2023-01-07T14:43:48.228Z,10.60
2023-01-07T14:46:24.212Z,10.60
2023-01-07T14:49:03.242Z,10.50
2023-01-07T14:51:56.394Z,10.60
2023-01-07T14:54:38.217Z,10.60
2023-01-07T14:57:23.011Z,10.60
2023-01-07T15:00:19.126Z,10.50
2023-01-07T15:03:10.191Z,10.40
2023-01-07T15:05:46.370Z,10.30
2023-01-07T15:08:40.265Z,10.20
2023-01-07T15:11:32.094Z,10.10
2023-01-07T15:14:23.824Z,10.20
2023-01-07T15:16:53.539Z,10.10
2023-01-07T15:19:21.778Z,10.00
2023-01-07T15:22:18.547Z,10.00
2023-01-07T15:25:06.065Z,10.00
2023-01-07T15:27:39.056Z,10.00
2023-01-07T15:30:17.860Z,10.00
2023-01-07T15:33:19.657Z,10.10
2023-01-07T15:35:46.738Z,10.00
2023-01-07T15:38:42.235Z,10.00
2023-01-07T15:41:31.246Z,9.90
2023-01-07T15:44:00.993Z,9.90
2023-01-07T15:46:30.057Z,9.80
2023-01-07T15:49:09.252Z,9.80
2023-01-07T15:51:40.675Z,9.80
2023-01-07T15:54:39.729Z,12.30
2023-01-07T15:57:14.566Z,9.60
2023-01-07T15:59:47.865Z,9.60
2023-01-07T16:02:29.318Z,9.60
2023-01-07T16:05:01.643Z,9.60
2023-01-07T16:07:34.616Z,9.70
2023-01-07T16:10:02.001Z,9.60
2023-01-07T16:12:35.359Z,9.60
2023-01-07T16:15:23.002Z,9.70
2023-01-07T16:17:55.184Z,9.50
2023-01-07T16:20:29.223Z,9.60
2023-01-07T16:23:23.888Z,9.50
2023-01-07T16:25:53.286Z,9.40
2023-01-07T16:28:30.918Z,9.40
2023-01-07T16:31:01.120Z,9.40
2023-01-07T16:33:30.288Z,9.30
2023-01-07T16:36:01.170Z,9.20
2023-01-07T16:38:28.716Z,9.30
2023-01-07T16:40:55.971Z,9.30
2023-01-07T16:43:49.334Z,9.20
2023-01-07T16:46:42.920Z,9.20
2023-01-07T16:49:21.149Z,9.10
2023-01-07T16:51:54.279Z,8.90
2023-01-07T16:54:25.165Z,9.00
2023-01-07T16:57:04.189Z,9.00
2023-01-07T16:59:56.205Z,9.10
2023-01-07T17:02:54.361Z,8.90
2023-01-07T17:05:39.372Z,8.90
2023-01-07T17:08:08.438Z,8.90
2023-01-07T17:10:37.521Z,8.90
2023-01-07T17:13:12.171Z,8.90
2023-01-07T17:15:39.560Z,8.80
2023-01-07T17:18:12.506Z,8.80
2023-01-07T17:20:48.740Z,8.80
2023-01-07T17:23:27.855Z,8.80
2023-01-07T17:26:08.791Z,8.70
2023-01-07T17:28:44.151Z,8.70
2023-01-07T17:31:11.015Z,8.70
2023-01-07T17:33:38.208Z,8.60
2023-01-07T17:36:05.305Z,8.60
2023-01-07T17:38:32.397Z,8.50
2023-01-07T17:40:59.320Z,8.50
2023-01-07T17:43:37.592Z,8.50
2023-01-07T17:46:05.737Z,8.50
2023-01-07T17:48:34.034Z,8.50
2023-01-07T17:51:04.373Z,8.60
2023-01-07T17:53:33.999Z,8.50
2023-01-07T17:56:01.803Z,8.50
2023-01-07T17:58:33.379Z,8.50
2023-01-07T18:01:02.849Z,8.50
2023-01-07T18:03:29.942Z,8.40
2023-01-07T18:05:56.840Z,8.60
2023-01-07T18:08:23.906Z,8.50
2023-01-07T18:11:13.705Z,8.50
2023-01-07T18:13:41.596Z,8.60
2023-01-07T18:16:12.742Z,8.60
2023-01-07T18:18:39.956Z,8.60
2023-01-07T18:21:06.979Z,8.70
2023-01-07T18:23:33.848Z,8.60
2023-01-07T18:26:00.720Z,8.60
2023-01-07T18:28:27.595Z,8.70
2023-01-07T18:30:54.460Z,8.60
2023-01-07T18:33:21.343Z,8.60
2023-01-07T18:35:48.791Z,8.60
2023-01-07T18:38:16.679Z,8.60
2023-01-07T18:40:44.001Z,8.50
2023-01-07T18:43:15.592Z,8.60
2023-01-07T18:45:43.620Z,8.60
2023-01-07T18:48:11.793Z,8.50
2023-01-07T18:50:47.042Z,8.50
2023-01-07T18:53:15.540Z,8.50
2023-01-07T18:55:43.380Z,8.60
2023-01-07T18:58:13.311Z,8.50
2023-01-07T19:00:40.884Z,8.70
2023-01-07T19:03:07.831Z,8.70
2023-01-07T19:05:36.803Z,8.70
2023-01-07T19:08:03.917Z,8.60
2023-01-07T19:10:33.817Z,8.70
2023-01-07T19:13:01.487Z,8.70
2023-01-07T19:15:28.542Z,8.70
2023-01-07T19:17:55.765Z,8.70
2023-01-07T19:20:22.718Z,8.60
2023-01-07T19:22:51.828Z,8.60
2023-01-07T19:25:18.630Z,8.70
2023-01-07T19:27:48.791Z,8.80
2023-01-07T19:30:18.080Z,8.70
2023-01-07T19:32:44.965Z,8.70
2023-01-07T19:35:12.920Z,8.70
2023-01-07T19:37:42.877Z,8.70
2023-01-07T19:40:15.101Z,8.80
2023-01-07T19:42:42.316Z,8.70
2023-01-07T19:45:12.277Z,8.90
2023-01-07T19:47:39.633Z,8.80
2023-01-07T19:50:07.013Z,8.80
2023-01-07T19:52:33.869Z,8.70
2023-01-07T19:55:00.659Z,8.70
2023-01-07T19:57:33.131Z,8.70
2023-01-07T20:00:00.150Z,8.80
2023-01-07T20:02:27.266Z,8.80
2023-01-07T20:04:54.499Z,8.80
2023-01-07T20:07:23.801Z,8.80
2023-01-07T20:09:53.932Z,8.80
2023-01-07T20:12:20.828Z,8.80
2023-01-07T20:14:47.791Z,8.80
2023-01-07T20:17:14.997Z,8.80
2023-01-07T20:19:41.889Z,8.70
2023-01-07T20:22:10.994Z,8.80
2023-01-07T20:24:38.559Z,8.80
2023-01-07T20:27:05.632Z,8.80
2023-01-07T20:29:39.853Z,8.90
2023-01-07T20:32:08.388Z,8.90
2023-01-07T20:34:35.235Z,8.90
2023-01-07T20:37:02.429Z,8.90
2023-01-07T20:39:29.298Z,8.90
2023-01-07T20:41:56.128Z,8.90
2023-01-07T20:44:26.003Z,9.00
2023-01-07T20:46:52.795Z,9.00
2023-01-07T20:49:19.820Z,8.90
2023-01-07T20:51:46.953Z,9.00
2023-01-07T20:54:14.598Z,9.00
2023-01-07T20:56:41.946Z,9.00
2023-01-07T20:59:10.912Z,9.00
2023-01-07T21:01:38.277Z,9.10
2023-01-07T21:04:06.072Z,9.10
2023-01-07T21:06:33.626Z,9.10
2023-01-07T21:09:00.693Z,9.10
2023-01-07T21:11:27.649Z,9.10
2023-01-07T21:13:56.261Z,9.10
2023-01-07T21:16:25.588Z,9.00
2023-01-07T21:18:52.750Z,9.00
2023-01-07T21:21:24.139Z,9.00
2023-01-07T21:23:52.725Z,9.00
2023-01-07T21:26:20.293Z,9.00
2023-01-07T21:28:47.221Z,9.00
2023-01-07T21:31:16.223Z,9.00
2023-01-07T21:33:43.868Z,9.00
2023-01-07T21:36:13.213Z,9.00
2023-01-07T21:38:40.149Z,9.10
2023-01-07T21:41:13.500Z,9.10
2023-01-07T21:43:40.640Z,9.10
2023-01-07T21:46:08.319Z,9.10
2023-01-07T21:48:37.646Z,9.20
2023-01-07T21:51:07.525Z,9.20
2023-01-07T21:53:35.274Z,9.20
2023-01-07T21:56:06.880Z,9.20
2023-01-07T21:58:38.122Z,9.30
2023-01-07T22:01:06.346Z,9.30
2023-01-07T22:03:34.687Z,9.30
2023-01-07T22:06:08.013Z,9.40
2023-01-07T22:08:35.417Z,9.40
2023-01-07T22:11:02.352Z,9.40
2023-01-07T22:13:29.352Z,9.40
2023-01-07T22:15:56.254Z,9.40
2023-01-07T22:18:23.197Z,9.50
2023-01-07T22:20:55.141Z,9.50
2023-01-07T22:23:22.514Z,9.50
2023-01-07T22:25:49.624Z,9.40
2023-01-07T22:28:19.304Z,9.40
2023-01-07T22:30:51.718Z,9.40
2023-01-07T22:33:18.556Z,9.50
2023-01-07T22:35:46.029Z,9.50
2023-01-07T22:38:14.471Z,9.50
2023-01-07T22:40:41.903Z,9.60
2023-01-07T22:43:12.188Z,9.50
2023-01-07T22:45:49.619Z,9.40
2023-01-07T22:48:20.871Z,9.30
2023-01-07T22:50:47.936Z,9.30
2023-01-07T22:53:14.865Z,9.20
2023-01-07T22:55:42.023Z,9.20
2023-01-07T22:58:08.907Z,9.20
2023-01-07T23:00:47.688Z,9.30
2023-01-07T23:03:14.466Z,9.40
2023-01-07T23:05:41.886Z,9.40
2023-01-07T23:08:09.091Z,9.40
2023-01-07T23:10:39.944Z,9.40
2023-01-07T23:13:07.420Z,9.40
2023-01-07T23:15:34.881Z,9.50
2023-01-07T23:18:02.382Z,9.50
2023-01-07T23:20:29.639Z,9.60
2023-01-07T23:22:56.732Z,9.70
2023-01-07T23:25:23.565Z,9.70
2023-01-07T23:27:50.412Z,9.70
2023-01-07T23:30:17.527Z,9.70
2023-01-07T23:32:45.223Z,9.80
2023-01-07T23:35:12.941Z,9.90
2023-01-07T23:37:40.027Z,9.90
2023-01-07T23:40:08.767Z,9.90
2023-01-07T23:42:35.840Z,9.90
2023-01-07T23:45:07.090Z,9.90
2023-01-07T23:47:34.337Z,9.90
2023-01-07T23:50:01.100Z,9.90
2023-01-07T23:52:28.193Z,9.90
2023-01-07T23:54:55.169Z,9.90
2023-01-07T23:57:21.963Z,9.90
2023-01-07T23:59:49.015Z,9.90
